Time;durP1;ratioP1;P1;durP2;ratioP2;P2;SDS_P1;SDS_P2;PMS_P1;PMS_P2;Temp;Humidity;BMP_temperature;BMP_pressure;BME280_temperature;BME280_humidity;BME280_pressure;Samples;Min_cycle;Max_cycle;Signal;HPM_P1;HPM_P2
2023/04/18 00:00:08;;;;;;;7.57;4.07;;;9.30;1.00;;;;;;20593950;28;20503;-39
2023/04/18 00:10:10;;;;;;;9.65;4.47;;;9.20;1.00;;;;;;20586776;28;20038;-39
2023/04/18 00:20:11;;;;;;;10.73;4.47;;;9.10;1.00;;;;;;20589246;28;20410;-39
2023/04/18 00:30:12;;;;;;;7.97;4.32;;;9.00;1.00;;;;;;20585435;28;20034;-39
2023/04/18 00:40:13;;;;;;;10.35;5.03;;;8.90;1.00;;;;;;20587775;28;20030;-39
2023/04/18 00:50:15;;;;;;;10.07;3.90;;;8.80;1.00;;;;;;20582701;28;20494;-39
2023/04/18 01:00:16;;;;;;;8.52;3.92;;;8.60;1.00;;;;;;20588372;28;20046;-39
2023/04/18 01:10:17;;;;;;;8.18;3.50;;;8.60;1.00;;;;;;20579841;28;20548;-39
2023/04/18 01:20:20;;;;;;;7.15;3.20;;;8.40;1.00;;;;;;20580205;28;20426;-39
2023/04/18 01:30:21;;;;;;;6.55;3.03;;;8.30;1.00;;;;;;20581303;28;20034;-39
2023/04/18 01:40:23;;;;;;;6.75;3.47;;;8.20;1.00;;;;;;20512161;28;20031;-39
2023/04/18 01:50:24;;;;;;;6.68;3.30;;;8.20;1.00;;;;;;20547828;28;20168;-39
2023/04/18 02:00:25;;;;;;;7.53;2.78;;;7.90;1.00;;;;;;20591314;28;20039;-39
2023/04/18 02:10:26;;;;;;;6.82;3.00;;;7.80;1.00;;;;;;20568454;28;20581;-39
2023/04/18 02:20:30;;;;;;;5.47;2.85;;;7.80;1.00;;;;;;20572604;28;20043;-39
2023/04/18 02:30:31;;;;;;;4.88;2.55;;;7.70;1.00;;;;;;20576352;28;20038;-40
2023/04/18 02:40:35;;;;;;;6.88;3.30;;;7.60;1.00;;;;;;20579363;28;20062;-40
2023/04/18 02:50:36;;;;;;;5.97;3.28;;;7.50;1.00;;;;;;20565704;28;20046;-39
2023/04/18 03:00:37;;;;;;;6.50;3.10;;;7.40;1.00;;;;;;20581497;28;20038;-39
2023/04/18 03:10:38;;;;;;;7.28;3.42;;;7.20;1.00;;;;;;20591864;28;20053;-39
2023/04/18 03:20:40;;;;;;;9.77;4.50;;;7.20;1.00;;;;;;20599286;28;20042;-39
2023/04/18 03:30:41;;;;;;;6.75;2.88;;;7.20;1.00;;;;;;20596835;28;20046;-39
2023/04/18 03:40:43;;;;;;;6.20;3.20;;;7.20;1.00;;;;;;20592276;28;20046;-39
2023/04/18 03:50:44;;;;;;;10.40;3.90;;;7.10;1.00;;;;;;20577026;28;20054;-39
2023/04/18 04:00:45;;;;;;;7.85;4.28;;;7.10;1.00;;;;;;20594023;28;20497;-39
2023/04/18 04:10:46;;;;;;;6.32;3.17;;;7.10;1.00;;;;;;20587783;28;20394;-39
2023/04/18 04:20:47;;;;;;;5.47;3.30;;;7.00;1.00;;;;;;20588532;28;20045;-39
2023/04/18 04:30:52;;;;;;;9.90;4.40;;;6.90;1.00;;;;;;20586132;28;20050;-39
2023/04/18 04:40:53;;;;;;;7.50;4.00;;;6.80;1.00;;;;;;20587487;28;20042;-39
2023/04/18 04:50:57;;;;;;;8.65;3.55;;;6.90;1.00;;;;;;20593363;28;20050;-39
2023/04/18 05:00:59;;;;;;;6.20;3.33;;;7.00;1.00;;;;;;20606917;28;20042;-39
2023/04/18 05:11:00;;;;;;;6.88;3.85;;;7.00;1.00;;;;;;20574227;28;20049;-39
2023/04/18 05:21:02;;;;;;;9.63;4.80;;;7.10;1.00;;;;;;20576755;28;20801;-39
2023/04/18 05:31:03;;;;;;;8.60;3.95;;;7.20;1.00;;;;;;20586754;28;20046;-39
2023/04/18 05:41:04;;;;;;;9.43;5.05;;;7.20;1.00;;;;;;20580710;28;20809;-39
2023/04/18 05:51:05;;;;;;;8.73;3.83;;;7.30;1.00;;;;;;20589717;28;20595;-41
2023/04/18 06:01:06;;;;;;;7.70;3.55;;;7.30;1.00;;;;;;20575914;28;20042;-39
2023/04/18 06:11:07;;;;;;;8.43;3.92;;;7.40;1.00;;;;;;20576196;28;20046;-39
2023/04/18 06:21:08;;;;;;;6.20;3.90;;;7.50;1.00;;;;;;20581606;28;20038;-39
2023/04/18 06:31:10;;;;;;;7.30;3.20;;;7.50;1.00;;;;;;20570754;28;20050;-39
2023/04/18 06:41:13;;;;;;;6.82;3.08;;;7.70;1.00;;;;;;20593752;28;20119;-39
2023/04/18 06:51:14;;;;;;;6.90;3.33;;;7.80;1.00;;;;;;20589092;28;20047;-39
2023/04/18 07:01:15;;;;;;;17.02;3.83;;;7.80;1.00;;;;;;20611027;28;20034;-39
2023/04/18 07:11:17;;;;;;;6.75;3.10;;;8.10;1.00;;;;;;20604013;28;20034;-39
2023/04/18 07:21:18;;;;;;;5.68;3.38;;;8.60;1.00;;;;;;20599250;28;20520;-40
2023/04/18 07:31:20;;;;;;;8.93;3.67;;;8.80;1.00;;;;;;20588308;28;20089;-40
2023/04/18 07:41:21;;;;;;;8.85;2.90;;;8.90;1.00;;;;;;20583982;28;20038;-40
2023/04/18 07:51:24;;;;;;;6.70;3.22;;;9.00;1.00;;;;;;20577320;28;20051;-39
2023/04/18 08:01:26;;;;;;;8.00;3.10;;;9.20;1.00;;;;;;20585819;28;20031;-39
2023/04/18 08:11:27;;;;;;;10.80;3.50;;;9.40;1.00;;;;;;20616823;28;20462;-39
2023/04/18 08:21:28;;;;;;;6.65;2.30;;;9.70;1.00;;;;;;20588298;28;20082;-39
2023/04/18 08:31:30;;;;;;;4.57;2.95;;;9.80;1.00;;;;;;20597905;28;20050;-40
2023/04/18 08:41:36;;;;;;;5.07;2.47;;;10.20;1.00;;;;;;20601778;28;20393;-40
2023/04/18 08:51:38;;;;;;;5.32;2.83;;;10.60;1.00;;;;;;20599092;28;20840;-40
2023/04/18 09:01:55;;;;;;;5.10;2.78;;;10.60;1.00;;;;;;20591051;28;20045;-40
2023/04/18 09:12:07;;;;;;;7.63;2.95;;;11.10;1.00;;;;;;20589704;28;20490;-41
2023/04/18 09:22:08;;;;;;;6.50;2.72;;;11.00;1.00;;;;;;20594487;28;20038;-41
2023/04/18 09:32:10;;;;;;;9.07;4.13;;;11.10;1.00;;;;;;20581020;28;20558;-41
2023/04/18 09:42:11;;;;;;;7.38;3.22;;;10.90;1.00;;;;;;20593450;28;20529;-41
2023/04/18 09:52:12;;;;;;;7.88;3.15;;;11.20;1.00;;;;;;20597984;28;20703;-42
2023/04/18 10:02:21;;;;;;;4.20;2.53;;;11.40;1.00;;;;;;20590399;28;20039;-41
2023/04/18 10:12:23;;;;;;;5.30;1.90;;;12.10;1.00;;;;;;20567459;28;20038;-40
2023/04/18 10:22:27;;;;;;;4.32;1.70;;;11.80;1.00;;;;;;20606401;28;20469;-40
2023/04/18 10:32:28;;;;;;;4.60;2.28;;;11.70;1.00;;;;;;20612646;28;20505;-40
2023/04/18 10:43:05;;;;;;;5.90;2.15;;;11.50;1.00;;;;;;20605883;28;20161;-40
2023/04/18 10:53:06;;;;;;;5.27;2.30;;;11.50;1.00;;;;;;20591283;28;20097;-40
2023/04/18 11:03:07;;;;;;;3.97;2.13;;;11.50;1.00;;;;;;20590774;28;20038;-41
2023/04/18 11:13:08;;;;;;;4.93;2.03;;;11.60;1.00;;;;;;20590607;28;20682;-39
2023/04/18 11:23:18;;;;;;;13.27;2.78;;;12.20;1.00;;;;;;20584979;28;20386;-40
2023/04/18 11:33:19;;;;;;;4.70;2.15;;;12.30;1.00;;;;;;20587108;28;20026;-39
2023/04/18 11:43:23;;;;;;;4.72;2.38;;;12.60;1.00;;;;;;20580390;28;20035;-39
2023/04/18 11:53:38;;;;;;;5.45;2.45;;;12.60;1.00;;;;;;20617740;28;20085;-40
2023/04/18 12:03:39;;;;;;;5.80;2.60;;;12.50;1.00;;;;;;20623282;28;20046;-39
2023/04/18 12:13:44;;;;;;;7.25;2.13;;;12.60;1.00;;;;;;20625822;28;20082;-38
2023/04/18 12:23:47;;;;;;;11.35;3.13;;;13.10;1.00;;;;;;20608722;28;20290;-40
2023/04/18 12:33:49;;;;;;;7.57;3.35;;;12.90;1.00;;;;;;20601970;28;20042;-40
2023/04/18 12:43:50;;;;;;;6.63;3.08;;;12.60;1.00;;;;;;20599351;28;20666;-39
2023/04/18 12:53:51;;;;;;;6.07;3.20;;;12.60;1.00;;;;;;20605546;28;20045;-39
2023/04/18 13:03:52;;;;;;;7.13;2.60;;;12.90;1.00;;;;;;20602882;28;21751;-40
2023/04/18 13:13:54;;;;;;;8.48;3.20;;;13.70;1.00;;;;;;20595362;28;20053;-39
2023/04/18 13:23:55;;;;;;;8.95;3.63;;;13.50;1.00;;;;;;20601504;28;20030;-40
2023/04/18 13:33:57;;;;;;;6.50;3.80;;;13.60;1.00;;;;;;20597175;28;20046;-39
2023/04/18 13:43:58;;;;;;;9.40;4.05;;;13.70;1.00;;;;;;20607617;28;20038;-39
2023/04/18 13:54:00;;;;;;;5.30;2.92;;;13.50;1.00;;;;;;20599042;28;20038;-40
2023/04/18 14:04:01;;;;;;;4.78;3.05;;;13.30;1.00;;;;;;20592210;28;20046;-39
2023/04/18 14:14:02;;;;;;;5.50;2.63;;;13.20;1.00;;;;;;20610025;28;20077;-40
2023/04/18 14:24:04;;;;;;;7.85;3.45;;;13.40;1.00;;;;;;20584888;28;20045;-39
2023/04/18 14:34:07;;;;;;;8.05;3.55;;;13.40;1.00;;;;;;20604498;28;21512;-38
2023/04/18 14:44:08;;;;;;;7.57;3.78;;;13.60;1.00;;;;;;20601635;28;20466;-38
2023/04/18 14:54:09;;;;;;;7.82;3.35;;;13.60;1.00;;;;;;20590646;28;20057;-38
2023/04/18 15:04:10;;;;;;;7.32;4.47;;;14.00;1.00;;;;;;20607583;28;20049;-40
2023/04/18 15:14:11;;;;;;;6.68;3.65;;;14.10;1.00;;;;;;20611533;28;20518;-39
2023/04/18 15:24:12;;;;;;;7.38;3.50;;;14.20;1.00;;;;;;20614501;28;20077;-38
2023/04/18 15:34:13;;;;;;;6.32;3.53;;;14.30;1.00;;;;;;20590875;28;20050;-40
2023/04/18 15:44:14;;;;;;;7.65;4.20;;;14.50;1.00;;;;;;20592445;28;20374;-39
2023/04/18 15:54:15;;;;;;;5.55;2.72;;;14.80;1.00;;;;;;20585916;28;20042;-38
2023/04/18 16:04:16;;;;;;;7.60;4.15;;;14.50;1.00;;;;;;20579915;28;20042;-39
2023/04/18 16:14:18;;;;;;;6.28;3.03;;;14.50;1.00;;;;;;20596143;28;20049;-38
2023/04/18 16:24:19;;;;;;;5.95;3.33;;;14.40;1.00;;;;;;20591405;28;20039;-39
2023/04/18 16:34:20;;;;;;;5.07;2.95;;;14.40;1.00;;;;;;20589213;28;20665;-41
2023/04/18 16:44:21;;;;;;;6.68;3.45;;;14.40;1.00;;;;;;20609379;28;20069;-41
2023/04/18 16:54:22;;;;;;;4.72;3.10;;;14.30;1.00;;;;;;20609336;28;20047;-41
2023/04/18 17:04:25;;;;;;;9.13;2.97;;;14.40;1.00;;;;;;20593729;28;20038;-41
2023/04/18 17:14:26;;;;;;;7.63;3.50;;;14.00;1.00;;;;;;20574898;28;20050;-41
2023/04/18 17:24:27;;;;;;;5.68;2.83;;;14.00;1.00;;;;;;20579875;28;20897;-41
2023/04/18 17:34:28;;;;;;;6.43;2.95;;;14.10;1.00;;;;;;20590115;28;20061;-41
2023/04/18 17:44:29;;;;;;;8.43;2.95;;;13.90;1.00;;;;;;20596485;28;20038;-41
2023/04/18 17:54:31;;;;;;;7.30;3.25;;;13.80;1.00;;;;;;20581149;28;20046;-41
2023/04/18 18:04:32;;;;;;;6.57;3.10;;;13.80;1.00;;;;;;20593470;28;20501;-41
2023/04/18 18:14:33;;;;;;;5.20;2.30;;;13.60;1.00;;;;;;20597524;28;20854;-41
2023/04/18 18:24:34;;;;;;;6.20;2.95;;;13.50;1.00;;;;;;20585999;28;20045;-41
2023/04/18 18:34:35;;;;;;;5.25;2.35;;;13.40;1.00;;;;;;20602814;28;20049;-42
2023/04/18 18:44:36;;;;;;;4.18;2.40;;;13.10;1.00;;;;;;20618007;28;20034;-41
2023/04/18 18:54:37;;;;;;;5.32;2.90;;;12.80;1.00;;;;;;20609640;28;20038;-41
2023/04/18 19:04:38;;;;;;;5.45;3.33;;;12.50;1.00;;;;;;20615712;28;20391;-41
2023/04/18 19:14:39;;;;;;;6.07;2.67;;;12.20;1.00;;;;;;20605357;28;20049;-41
2023/04/18 19:24:41;;;;;;;6.82;3.35;;;11.90;1.00;;;;;;20604890;28;20045;-41
2023/04/18 19:34:42;;;;;;;7.53;3.10;;;11.80;1.00;;;;;;20620778;28;20056;-41
2023/04/18 19:44:43;;;;;;;6.18;2.92;;;11.60;1.00;;;;;;20612684;28;20061;-41
2023/04/18 19:54:44;;;;;;;6.57;3.40;;;11.60;1.00;;;;;;20599892;28;20038;-41
2023/04/18 20:04:45;;;;;;;7.13;2.95;;;11.50;1.00;;;;;;20583103;28;20391;-41
2023/04/18 20:14:46;;;;;;;6.03;3.10;;;11.40;1.00;;;;;;20584439;28;20053;-41
2023/04/18 20:24:48;;;;;;;4.10;2.67;;;11.30;1.00;;;;;;20592491;28;20035;-41
2023/04/18 20:34:50;;;;;;;5.05;2.65;;;11.20;1.00;;;;;;20574746;28;20414;-40
2023/04/18 20:44:53;;;;;;;6.00;2.85;;;11.10;1.00;;;;;;20595740;28;20046;-41
2023/04/18 20:54:54;;;;;;;6.35;2.80;;;11.10;1.00;;;;;;20599692;28;20474;-41
2023/04/18 21:04:57;;;;;;;5.72;2.47;;;11.00;1.00;;;;;;20571990;28;20050;-41
2023/04/18 21:14:58;;;;;;;4.50;2.53;;;11.10;1.00;;;;;;20583020;28;20026;-41
2023/04/18 21:24:59;;;;;;;4.60;2.42;;;11.10;1.00;;;;;;20581836;28;20030;-41
2023/04/18 21:35:01;;;;;;;4.43;2.45;;;10.90;1.00;;;;;;20584674;28;20045;-41
2023/04/18 21:45:03;;;;;;;4.75;2.28;;;10.90;1.00;;;;;;20579750;28;22055;-42
2023/04/18 21:55:04;;;;;;;4.80;2.00;;;10.60;1.00;;;;;;20576899;28;20053;-41
2023/04/18 22:05:06;;;;;;;3.67;2.03;;;10.60;1.00;;;;;;20566132;28;20030;-41
2023/04/18 22:15:07;;;;;;;6.82;2.65;;;10.50;1.00;;;;;;20579953;28;20056;-41
2023/04/18 22:25:10;;;;;;;4.25;2.55;;;10.40;1.00;;;;;;20579164;28;20037;-41
2023/04/18 22:35:11;;;;;;;5.32;1.77;;;10.30;1.00;;;;;;20575184;28;20026;-42
2023/04/18 22:45:13;;;;;;;3.70;1.55;;;10.10;1.00;;;;;;20577260;28;20022;-42
2023/04/18 22:55:15;;;;;;;4.30;2.20;;;10.00;1.00;;;;;;20578766;28;20045;-42
2023/04/18 23:05:16;;;;;;;4.97;2.00;;;10.00;1.00;;;;;;20574313;28;20069;-42
2023/04/18 23:15:17;;;;;;;4.80;2.38;;;9.90;1.00;;;;;;20571148;28;20031;-42
2023/04/18 23:25:18;;;;;;;3.67;2.28;;;10.00;1.00;;;;;;20586568;28;20026;-42
2023/04/18 23:35:19;;;;;;;11.32;2.33;;;9.80;1.00;;;;;;20578809;28;20482;-42
2023/04/18 23:45:23;;;;;;;4.53;2.03;;;9.70;1.00;;;;;;20588117;28;20054;-42
2023/04/18 23:55:24;;;;;;;4.90;2.22;;;9.80;1.00;;;;;;20587391;28;20399;-42
